createdAt,value
2019-02-16T00:01:48.064Z,6.40
2019-02-16T00:04:14.351Z,5.37
2019-02-16T00:06:40.549Z,5.13
2019-02-16T00:09:06.875Z,4.93
2019-02-16T00:11:33.086Z,6.43
2019-02-16T00:13:59.299Z,5.33
2019-02-16T00:16:25.606Z,7.80
2019-02-16T00:18:51.834Z,5.67
2019-02-16T00:21:18.096Z,9.13
2019-02-16T00:23:44.349Z,5.93
2019-02-16T00:26:10.550Z,5.43
2019-02-16T00:28:36.831Z,4.80
2019-02-16T00:31:03.093Z,7.43
2019-02-16T00:33:29.385Z,7.83
2019-02-16T00:35:55.654Z,9.60
2019-02-16T00:38:21.936Z,9.27
2019-02-16T00:40:48.231Z,7.97
2019-02-16T00:43:14.476Z,6.43
2019-02-16T00:45:40.790Z,7.70
2019-02-16T00:48:06.993Z,5.60
2019-02-16T00:50:33.219Z,8.80
2019-02-16T00:52:59.459Z,6.33
2019-02-16T00:55:25.759Z,8.30
2019-02-16T00:57:51.957Z,6.33
2019-02-16T01:00:18.366Z,6.43
2019-02-16T01:02:44.655Z,7.80
2019-02-16T01:05:10.976Z,6.53
2019-02-16T01:07:37.275Z,7.60
2019-02-16T01:10:06.023Z,6.70
2019-02-16T01:12:32.243Z,8.67
2019-02-16T01:14:58.434Z,7.20
2019-02-16T01:17:24.675Z,6.23
2019-02-16T01:19:50.894Z,5.53
2019-02-16T01:22:17.107Z,5.60
2019-02-16T01:24:43.303Z,5.40
2019-02-16T01:27:09.519Z,7.20
2019-02-16T01:29:35.810Z,5.53
2019-02-16T01:32:02.433Z,5.90
2019-02-16T01:34:28.634Z,5.13
2019-02-16T01:36:54.851Z,8.47
2019-02-16T01:39:21.117Z,5.83
2019-02-16T01:41:47.895Z,5.00
2019-02-16T01:44:14.416Z,6.50
2019-02-16T01:46:40.628Z,4.87
2019-02-16T01:49:06.835Z,4.77
2019-02-16T01:51:33.041Z,5.67
2019-02-16T01:53:59.263Z,5.63
2019-02-16T01:56:25.439Z,5.97
2019-02-16T01:58:51.844Z,6.33
2019-02-16T02:01:18.128Z,5.23
2019-02-16T02:03:44.322Z,5.43
2019-02-16T02:06:10.537Z,5.10
2019-02-16T02:08:36.778Z,5.97
2019-02-16T02:11:03.771Z,5.60
2019-02-16T02:13:29.988Z,6.20
2019-02-16T02:15:56.260Z,6.13
2019-02-16T02:18:22.591Z,5.83
2019-02-16T02:20:48.806Z,7.30
2019-02-16T02:23:15.023Z,5.43
2019-02-16T02:25:41.227Z,5.80
2019-02-16T02:28:07.415Z,6.43
2019-02-16T02:30:33.731Z,6.33
2019-02-16T02:32:59.925Z,6.50
2019-02-16T02:35:26.616Z,6.47
2019-02-16T02:37:52.808Z,9.03
2019-02-16T02:40:18.980Z,9.30
2019-02-16T02:42:45.194Z,7.97
2019-02-16T02:45:11.392Z,8.00
2019-02-16T02:47:37.612Z,7.43
2019-02-16T02:50:05.403Z,7.70
2019-02-16T02:52:31.627Z,7.93
2019-02-16T02:54:57.833Z,7.50
2019-02-16T02:57:24.048Z,7.53
2019-02-16T02:59:50.254Z,9.73
2019-02-16T03:02:16.475Z,11.93
2019-02-16T03:04:42.682Z,7.57
2019-02-16T03:07:08.905Z,10.73
2019-02-16T03:09:35.111Z,8.33
2019-02-16T03:12:01.314Z,7.17
2019-02-16T03:14:27.518Z,6.67
2019-02-16T03:16:53.712Z,6.87
2019-02-16T03:19:19.992Z,7.47
2019-02-16T03:21:46.233Z,9.20
2019-02-16T03:24:12.572Z,6.47
2019-02-16T03:26:51.678Z,9.57
2019-02-16T03:29:36.600Z,7.10
2019-02-16T03:32:18.629Z,6.20
2019-02-16T03:34:48.736Z,6.73
2019-02-16T03:37:42.219Z,8.13
2019-02-16T03:40:10.291Z,7.60
2019-02-16T03:42:36.495Z,9.17
2019-02-16T03:45:04.436Z,7.27
2019-02-16T03:47:30.731Z,7.10
2019-02-16T03:49:57.057Z,8.43
2019-02-16T03:52:23.318Z,6.50
2019-02-16T03:54:49.603Z,7.13
2019-02-16T03:57:15.817Z,7.90
2019-02-16T03:59:42.018Z,8.67
2019-02-16T04:02:08.242Z,9.13
2019-02-16T04:04:34.439Z,6.90
2019-02-16T04:07:00.671Z,5.63
2019-02-16T04:09:26.975Z,11.00
2019-02-16T04:11:53.268Z,7.30
2019-02-16T04:14:19.478Z,6.87
2019-02-16T04:16:45.782Z,9.30
2019-02-16T04:19:11.987Z,6.50
2019-02-16T04:21:38.307Z,6.40
2019-02-16T04:24:04.548Z,6.83
2019-02-16T04:26:30.861Z,7.57
2019-02-16T04:28:57.059Z,7.07
2019-02-16T04:31:23.284Z,7.20
2019-02-16T04:33:49.505Z,8.07
2019-02-16T04:36:15.700Z,6.27
2019-02-16T04:38:41.943Z,11.43
2019-02-16T04:41:08.156Z,6.43
2019-02-16T04:43:34.337Z,7.93
2019-02-16T04:46:00.669Z,9.60
2019-02-16T04:48:26.995Z,7.03
2019-02-16T04:50:53.187Z,7.03
2019-02-16T04:53:19.385Z,7.20
2019-02-16T04:55:45.639Z,8.23
2019-02-16T04:58:11.926Z,6.80
2019-02-16T05:00:38.143Z,7.17
2019-02-16T05:03:04.385Z,8.73
2019-02-16T05:05:30.580Z,10.03
2019-02-16T05:07:56.793Z,7.50
2019-02-16T05:10:22.996Z,5.70
2019-02-16T05:12:49.345Z,7.40
2019-02-16T05:15:15.558Z,5.83
2019-02-16T05:17:41.832Z,6.37
2019-02-16T05:20:08.238Z,12.10
2019-02-16T05:22:43.874Z,7.37
2019-02-16T05:25:03.772Z,14.30
2019-02-16T05:27:30.050Z,6.47
2019-02-16T05:29:56.304Z,7.40
2019-02-16T05:32:22.668Z,8.37
2019-02-16T05:34:48.848Z,6.23
2019-02-16T05:37:15.055Z,8.00
2019-02-16T05:39:41.284Z,7.60
2019-02-16T05:42:07.495Z,7.50
2019-02-16T05:44:33.695Z,8.90
2019-02-16T05:46:59.934Z,8.63
2019-02-16T05:49:26.150Z,9.37
2019-02-16T05:51:52.364Z,8.13
2019-02-16T05:54:18.576Z,7.13
2019-02-16T05:56:44.804Z,6.73
2019-02-16T05:59:11.104Z,6.90
2019-02-16T06:01:37.521Z,8.37
2019-02-16T06:04:03.719Z,7.00
2019-02-16T06:06:29.917Z,9.23
2019-02-16T06:08:56.146Z,6.13
2019-02-16T06:11:22.448Z,6.70
2019-02-16T06:13:48.672Z,7.10
2019-02-16T06:16:14.842Z,6.17
2019-02-16T06:18:41.047Z,6.90
2019-02-16T06:21:07.269Z,7.57
2019-02-16T06:23:33.543Z,7.93
2019-02-16T06:25:59.756Z,7.50
2019-02-16T06:28:25.968Z,6.87
2019-02-16T06:30:52.163Z,8.37
2019-02-16T06:33:18.361Z,7.10
2019-02-16T06:35:46.474Z,5.37
2019-02-16T06:38:12.768Z,7.60
2019-02-16T06:40:41.111Z,6.33
2019-02-16T06:43:07.281Z,7.43
2019-02-16T06:45:33.486Z,9.87
2019-02-16T06:47:59.739Z,10.23
2019-02-16T06:50:25.934Z,9.30
2019-02-16T06:52:57.123Z,7.70
2019-02-16T06:55:25.202Z,5.70
2019-02-16T06:57:51.428Z,6.13
2019-02-16T07:00:19.556Z,7.10
2019-02-16T07:02:45.752Z,6.40
2019-02-16T07:05:12.070Z,6.40
2019-02-16T07:07:38.276Z,5.87
2019-02-16T07:10:07.226Z,9.13
2019-02-16T07:12:33.444Z,6.23
2019-02-16T07:14:59.650Z,7.73
2019-02-16T07:17:27.777Z,7.47
2019-02-16T07:19:54.226Z,7.63
2019-02-16T07:22:20.663Z,7.70
2019-02-16T07:24:46.856Z,6.20
2019-02-16T07:27:13.072Z,7.27
2019-02-16T07:29:39.271Z,6.93
2019-02-16T07:32:05.507Z,7.30
2019-02-16T07:34:31.841Z,7.00
2019-02-16T07:36:58.125Z,5.80
2019-02-16T07:39:24.404Z,6.70
2019-02-16T07:41:50.600Z,8.70
2019-02-16T07:44:30.538Z,11.23
2019-02-16T07:47:16.812Z,7.03
2019-02-16T07:50:02.957Z,6.37
2019-02-16T07:52:40.310Z,6.17
2019-02-16T07:55:08.540Z,5.87
2019-02-16T07:57:36.647Z,6.23
2019-02-16T08:00:12.396Z,6.83
2019-02-16T08:02:58.180Z,8.03
2019-02-16T08:05:35.155Z,6.93
2019-02-16T08:08:19.556Z,6.67
2019-02-16T08:10:47.676Z,6.33
2019-02-16T08:13:30.708Z,7.90
2019-02-16T08:16:01.567Z,6.63
2019-02-16T08:18:29.784Z,5.93
2019-02-16T08:20:58.024Z,7.40
2019-02-16T08:23:40.307Z,5.63
2019-02-16T08:26:05.018Z,8.13
2019-02-16T08:28:42.318Z,6.80
2019-02-16T08:31:10.451Z,7.17
2019-02-16T08:33:41.326Z,7.43
2019-02-16T08:36:24.635Z,6.13
2019-02-16T08:39:07.667Z,6.63
2019-02-16T08:41:38.494Z,6.17
2019-02-16T08:44:06.599Z,9.77
2019-02-16T08:46:40.758Z,5.67
2019-02-16T08:49:08.863Z,5.30
2019-02-16T08:51:42.699Z,7.27
2019-02-16T08:54:10.815Z,6.07
2019-02-16T08:56:41.999Z,6.00
2019-02-16T08:59:10.110Z,6.17
2019-02-16T09:01:53.275Z,6.10
2019-02-16T09:04:24.386Z,6.00
2019-02-16T09:07:04.267Z,7.37
2019-02-16T09:09:48.959Z,5.90
2019-02-16T09:12:22.964Z,5.83
2019-02-16T09:14:51.091Z,5.97
2019-02-16T09:17:22.176Z,6.60
2019-02-16T09:20:05.270Z,7.07
2019-02-16T09:22:39.504Z,6.60
2019-02-16T09:25:07.807Z,6.27
2019-02-16T09:27:35.966Z,6.27
2019-02-16T09:30:06.583Z,6.33
2019-02-16T09:32:37.751Z,6.23
2019-02-16T09:35:07.422Z,6.13
2019-02-16T09:37:35.631Z,6.60
2019-02-16T09:40:04.557Z,6.50
2019-02-16T09:42:38.695Z,5.77
2019-02-16T09:45:08.106Z,6.83
2019-02-16T09:47:42.215Z,6.33
2019-02-16T09:50:22.210Z,6.87
2019-02-16T09:52:53.184Z,7.30
2019-02-16T09:55:33.225Z,6.70
2019-02-16T09:58:10.422Z,6.87
2019-02-16T10:00:38.533Z,6.93
2019-02-16T10:03:23.341Z,6.83
2019-02-16T10:05:51.574Z,6.80
2019-02-16T10:08:36.449Z,7.73
2019-02-16T10:11:19.544Z,6.60
2019-02-16T10:14:02.503Z,7.67
2019-02-16T10:16:33.356Z,6.43
2019-02-16T10:19:10.196Z,6.60
2019-02-16T10:21:41.523Z,10.30
2019-02-16T10:24:17.522Z,8.13
2019-02-16T10:26:42.558Z,7.37
2019-02-16T10:29:16.888Z,7.40
2019-02-16T10:31:48.200Z,7.10
2019-02-16T10:34:25.649Z,8.00
2019-02-16T10:36:54.229Z,8.47
2019-02-16T10:39:38.271Z,7.47
2019-02-16T10:42:12.496Z,8.10
2019-02-16T10:44:43.824Z,7.80
2019-02-16T10:47:21.354Z,7.97
2019-02-16T10:49:52.634Z,8.00
2019-02-16T10:52:26.598Z,8.40
2019-02-16T10:54:57.498Z,9.10
2019-02-16T10:57:41.971Z,8.90
2019-02-16T11:00:10.227Z,8.00
2019-02-16T11:02:44.479Z,10.33
2019-02-16T11:05:12.915Z,9.23
2019-02-16T11:07:41.037Z,9.87
2019-02-16T11:10:10.648Z,10.57
2019-02-16T11:12:41.782Z,11.30
2019-02-16T11:15:11.911Z,11.10
2019-02-16T11:17:56.386Z,10.80
2019-02-16T11:20:27.259Z,11.23
2019-02-16T11:23:04.437Z,10.50
2019-02-16T11:25:38.462Z,15.87
2019-02-16T11:28:15.849Z,10.10
2019-02-16T11:31:00.378Z,11.43
2019-02-16T11:33:40.289Z,11.10
2019-02-16T11:36:14.391Z,10.67
2019-02-16T11:38:42.536Z,11.83
2019-02-16T11:41:18.913Z,10.17
2019-02-16T11:43:52.593Z,11.80
2019-02-16T11:46:29.614Z,10.13
2019-02-16T11:49:14.386Z,12.20
2019-02-16T11:51:45.347Z,11.37
2019-02-16T11:54:16.331Z,10.77
2019-02-16T11:56:47.207Z,12.20
2019-02-16T11:59:18.185Z,10.60
2019-02-16T12:01:46.305Z,11.77
2019-02-16T12:04:29.401Z,10.23
2019-02-16T12:07:13.887Z,12.80
2019-02-16T12:09:56.925Z,11.90
2019-02-16T12:12:34.015Z,11.90
2019-02-16T12:15:11.042Z,11.10
2019-02-16T12:17:42.213Z,12.20
2019-02-16T12:20:33.683Z,11.00
2019-02-16T12:22:58.666Z,11.30
2019-02-16T12:25:29.779Z,11.77
2019-02-16T12:28:14.270Z,12.30
2019-02-16T12:30:58.956Z,14.33
2019-02-16T12:33:43.473Z,15.30
2019-02-16T12:36:11.611Z,12.43
2019-02-16T12:38:51.827Z,12.53
2019-02-16T12:41:20.055Z,13.40
2019-02-16T12:43:59.958Z,11.50
2019-02-16T12:46:37.155Z,12.50
2019-02-16T12:49:08.031Z,12.27
2019-02-16T12:51:47.911Z,11.77
2019-02-16T12:54:21.800Z,11.23
2019-02-16T12:56:52.676Z,11.80
2019-02-16T12:59:26.699Z,10.87
2019-02-16T13:01:54.814Z,12.23
2019-02-16T13:04:25.678Z,11.13
2019-02-16T13:06:56.648Z,11.60
2019-02-16T13:09:24.856Z,12.63
2019-02-16T13:11:52.952Z,15.03
2019-02-16T13:14:23.804Z,11.93
2019-02-16T13:16:54.955Z,17.60
2019-02-16T13:19:23.188Z,11.63
2019-02-16T13:21:51.322Z,11.47
2019-02-16T13:24:28.464Z,10.93
2019-02-16T13:27:13.277Z,12.10
2019-02-16T13:29:41.511Z,11.87
2019-02-16T13:32:26.403Z,11.23
2019-02-16T13:34:54.544Z,12.33
2019-02-16T13:37:28.625Z,11.80
2019-02-16T13:40:02.622Z,12.10
2019-02-16T13:42:30.781Z,11.93
2019-02-16T13:45:01.728Z,10.77
2019-02-16T13:47:29.868Z,11.23
2019-02-16T13:50:00.938Z,10.13
2019-02-16T13:52:31.895Z,15.70
2019-02-16T13:55:05.727Z,12.33
2019-02-16T13:57:42.943Z,11.17
2019-02-16T14:00:11.061Z,12.70
2019-02-16T14:02:41.824Z,13.30
2019-02-16T14:05:28.093Z,11.83
2019-02-16T14:08:01.795Z,12.30
2019-02-16T14:10:35.927Z,12.43
2019-02-16T14:13:04.144Z,12.80
2019-02-16T14:15:50.395Z,10.30
2019-02-16T14:18:16.691Z,9.93
2019-02-16T14:20:42.955Z,12.90
2019-02-16T14:23:09.191Z,11.63
2019-02-16T14:25:43.718Z,9.83
2019-02-16T14:28:05.688Z,14.00
2019-02-16T14:30:32.123Z,11.57
2019-02-16T14:32:58.374Z,12.07
2019-02-16T14:35:24.763Z,11.40
2019-02-16T14:38:05.055Z,15.43
2019-02-16T14:40:31.635Z,12.00
2019-02-16T14:42:58.082Z,9.50
2019-02-16T14:45:24.380Z,9.83
2019-02-16T14:47:50.575Z,9.93
2019-02-16T14:50:17.024Z,11.40
2019-02-16T14:52:43.450Z,12.63
2019-02-16T14:55:13.065Z,10.37
2019-02-16T14:57:39.450Z,10.53
2019-02-16T15:00:10.823Z,11.50
2019-02-16T15:02:40.233Z,11.40
2019-02-16T15:05:09.743Z,9.37
2019-02-16T15:07:36.067Z,9.97
2019-02-16T15:10:05.155Z,13.60
2019-02-16T15:12:31.424Z,10.60
2019-02-16T15:14:57.659Z,10.63
2019-02-16T15:17:23.880Z,10.27
2019-02-16T15:19:50.192Z,10.30
2019-02-16T15:22:16.403Z,11.00
2019-02-16T15:24:42.651Z,11.17
2019-02-16T15:27:08.994Z,11.57
2019-02-16T15:29:35.244Z,10.03
2019-02-16T15:32:01.486Z,13.57
2019-02-16T15:34:27.788Z,11.13
2019-02-16T15:36:54.008Z,13.67
2019-02-16T15:39:20.219Z,15.77
2019-02-16T15:41:46.590Z,11.30
2019-02-16T15:44:12.782Z,17.67
2019-02-16T15:46:39.161Z,13.40
2019-02-16T15:49:05.476Z,11.63
2019-02-16T15:51:31.794Z,11.17
2019-02-16T15:53:58.205Z,12.20
2019-02-16T15:56:24.454Z,11.13
2019-02-16T15:58:50.812Z,11.50
2019-02-16T16:01:17.286Z,13.37
2019-02-16T16:03:43.593Z,16.27
2019-02-16T16:06:10.057Z,14.73
2019-02-16T16:08:38.214Z,12.17
2019-02-16T16:11:12.187Z,12.03
2019-02-16T16:13:49.381Z,11.70
2019-02-16T16:16:23.348Z,12.17
2019-02-16T16:19:00.379Z,13.20
2019-02-16T16:21:31.515Z,18.57
2019-02-16T16:24:05.586Z,12.57
2019-02-16T16:26:50.489Z,11.63
2019-02-16T16:29:21.371Z,12.50
2019-02-16T16:31:55.372Z,16.80
2019-02-16T16:34:35.667Z,16.60
2019-02-16T16:37:15.734Z,17.43
2019-02-16T16:39:46.381Z,14.80
2019-02-16T16:42:17.810Z,14.80
2019-02-16T16:44:54.909Z,15.37
2019-02-16T16:47:29.007Z,14.97
2019-02-16T16:50:00.339Z,14.60
2019-02-16T16:52:46.431Z,18.17
2019-02-16T16:55:17.296Z,15.37
2019-02-16T16:57:45.565Z,13.10
2019-02-16T17:00:14.075Z,14.50
2019-02-16T17:02:58.915Z,13.00
2019-02-16T17:05:43.996Z,14.43
2019-02-16T17:08:18.532Z,14.70
2019-02-16T17:10:47.068Z,14.60
2019-02-16T17:13:15.351Z,18.20
2019-02-16T17:15:52.627Z,13.80
2019-02-16T17:18:26.503Z,13.43
2019-02-16T17:20:57.721Z,12.33
2019-02-16T17:23:26.064Z,13.40
2019-02-16T17:25:57.395Z,13.57
2019-02-16T17:28:31.744Z,15.30
2019-02-16T17:30:59.959Z,13.23
2019-02-16T17:33:28.184Z,15.80
2019-02-16T17:35:59.376Z,14.33
2019-02-16T17:38:27.628Z,13.33
2019-02-16T17:40:55.770Z,17.47
2019-02-16T17:43:30.186Z,14.53
2019-02-16T17:46:07.915Z,12.80
2019-02-16T17:48:42.044Z,13.80
2019-02-16T17:51:22.523Z,13.27
2019-02-16T17:53:53.920Z,20.07
2019-02-16T17:56:28.390Z,16.20
2019-02-16T17:59:08.851Z,11.83
2019-02-16T18:01:39.843Z,10.90
2019-02-16T18:04:08.169Z,13.27
2019-02-16T18:06:36.466Z,13.77
2019-02-16T18:09:11.575Z,14.40
2019-02-16T18:11:45.587Z,16.47
2019-02-16T18:14:16.450Z,17.77
2019-02-16T18:16:44.583Z,16.80
2019-02-16T18:19:15.468Z,16.23
2019-02-16T18:21:43.724Z,21.60
2019-02-16T18:24:14.922Z,18.97
2019-02-16T18:26:46.230Z,14.13
2019-02-16T18:29:26.804Z,15.87
2019-02-16T18:31:57.860Z,21.23
2019-02-16T18:34:26.166Z,19.83
2019-02-16T18:36:57.408Z,19.03
2019-02-16T18:39:25.885Z,16.37
2019-02-16T18:41:57.257Z,18.97
2019-02-16T18:44:34.554Z,19.63
2019-02-16T18:47:08.473Z,24.50
2019-02-16T18:49:53.528Z,20.30
2019-02-16T18:52:24.713Z,23.93
2019-02-16T18:54:53.013Z,22.37
2019-02-16T18:57:21.260Z,22.40
2019-02-16T18:59:52.450Z,22.90
2019-02-16T19:02:26.824Z,23.00
2019-02-16T19:05:00.896Z,23.33
2019-02-16T19:07:38.288Z,25.73
2019-02-16T19:10:07.423Z,23.40
2019-02-16T19:12:35.693Z,24.63
2019-02-16T19:15:22.454Z,21.13
2019-02-16T19:17:59.333Z,22.03
2019-02-16T19:20:44.209Z,32.77
2019-02-16T19:23:12.563Z,32.30
2019-02-16T19:25:49.662Z,28.90
2019-02-16T19:28:26.818Z,31.60
2019-02-16T19:31:12.853Z,25.80
2019-02-16T19:33:44.219Z,30.10
2019-02-16T19:36:12.367Z,26.90
2019-02-16T19:38:40.489Z,24.83
2019-02-16T19:41:14.564Z,24.70
2019-02-16T19:43:42.738Z,26.80
2019-02-16T19:46:16.947Z,25.10
2019-02-16T19:48:45.147Z,23.67
2019-02-16T19:51:31.232Z,24.30
2019-02-16T19:54:01.886Z,25.60
2019-02-16T19:56:45.291Z,24.57
2019-02-16T19:59:13.496Z,28.73
2019-02-16T20:01:47.753Z,24.90
2019-02-16T20:04:15.969Z,35.13
2019-02-16T20:07:00.492Z,33.27
2019-02-16T20:09:34.466Z,29.27
2019-02-16T20:12:02.609Z,26.73
2019-02-16T20:14:33.573Z,28.07
2019-02-16T20:17:04.634Z,25.47
2019-02-16T20:19:38.601Z,26.57
2019-02-16T20:22:12.883Z,24.97
2019-02-16T20:24:41.204Z,23.43
2019-02-16T20:27:15.424Z,20.30
2019-02-16T20:29:58.467Z,21.80
2019-02-16T20:32:26.713Z,24.97
2019-02-16T20:35:03.921Z,17.60
2019-02-16T20:37:39.454Z,25.67
2019-02-16T20:40:24.345Z,27.80
2019-02-16T20:42:58.315Z,26.17
2019-02-16T20:45:44.648Z,22.27
2019-02-16T20:48:15.760Z,20.20
2019-02-16T20:50:49.936Z,23.20
2019-02-16T20:53:21.287Z,20.50
2019-02-16T20:55:52.150Z,21.00
2019-02-16T20:58:20.295Z,24.23
2019-02-16T21:00:54.289Z,24.80
2019-02-16T21:03:31.418Z,20.30
2019-02-16T21:06:02.592Z,20.97
2019-02-16T21:08:33.707Z,21.33
2019-02-16T21:11:04.632Z,17.07
2019-02-16T21:13:32.905Z,22.57
2019-02-16T21:16:03.892Z,23.17
2019-02-16T21:18:41.258Z,26.23
2019-02-16T21:21:09.590Z,19.77
2019-02-16T21:23:54.421Z,19.07
2019-02-16T21:26:22.750Z,18.53
2019-02-16T21:28:53.827Z,18.90
2019-02-16T21:31:38.297Z,23.50
2019-02-16T21:34:06.525Z,22.43
2019-02-16T21:36:37.660Z,26.70
2019-02-16T21:39:15.711Z,24.33
2019-02-16T21:41:49.970Z,24.57
2019-02-16T21:44:27.045Z,27.67
2019-02-16T21:46:58.159Z,29.20
2019-02-16T21:49:29.005Z,23.47
2019-02-16T21:52:02.899Z,27.40
2019-02-16T21:54:31.009Z,26.90
2019-02-16T21:57:14.007Z,25.17
2019-02-16T21:59:57.035Z,24.27
2019-02-16T22:02:28.044Z,21.70
2019-02-16T22:04:56.282Z,25.33
2019-02-16T22:07:33.615Z,24.77
2019-02-16T22:10:04.583Z,24.60
2019-02-16T22:12:32.738Z,28.27
2019-02-16T22:14:58.961Z,24.07
2019-02-16T22:17:25.269Z,36.43
2019-02-16T22:19:51.671Z,23.90
2019-02-16T22:22:17.921Z,28.10
2019-02-16T22:24:44.136Z,29.30
2019-02-16T22:27:10.393Z,25.93
2019-02-16T22:29:36.622Z,26.47
2019-02-16T22:32:03.216Z,26.37
2019-02-16T22:34:29.499Z,27.20
2019-02-16T22:36:55.702Z,24.47
2019-02-16T22:39:22.006Z,24.40
2019-02-16T22:41:48.435Z,25.50
2019-02-16T22:44:14.788Z,28.83
2019-02-16T22:46:41.010Z,28.27
2019-02-16T22:49:07.223Z,30.60
2019-02-16T22:51:33.551Z,31.67
2019-02-16T22:54:01.096Z,29.70
2019-02-16T22:56:27.411Z,28.30
2019-02-16T22:58:53.600Z,24.67
2019-02-16T23:01:20.203Z,26.40
2019-02-16T23:03:46.490Z,22.73
2019-02-16T23:06:12.723Z,24.10
2019-02-16T23:08:39.074Z,32.93
2019-02-16T23:11:05.404Z,26.20
2019-02-16T23:13:32.034Z,28.33
2019-02-16T23:15:58.604Z,27.50
2019-02-16T23:18:24.947Z,30.47
2019-02-16T23:20:51.376Z,30.60
2019-02-16T23:23:17.893Z,26.63
2019-02-16T23:25:44.240Z,29.50
2019-02-16T23:28:10.765Z,28.53
2019-02-16T23:30:37.153Z,26.20
2019-02-16T23:33:03.693Z,36.10
2019-02-16T23:35:30.118Z,24.90
2019-02-16T23:37:56.430Z,29.23
2019-02-16T23:40:22.703Z,27.17
2019-02-16T23:42:49.031Z,30.17
2019-02-16T23:45:15.372Z,27.27
2019-02-16T23:47:41.668Z,27.90
2019-02-16T23:50:10.487Z,31.37
2019-02-16T23:52:36.720Z,25.77
2019-02-16T23:55:08.283Z,31.77
2019-02-16T23:57:34.517Z,26.87
